createdAt,value
2018-05-26T00:00:13.132Z,99.90
2018-05-26T00:02:41.658Z,99.90
2018-05-26T00:05:09.296Z,99.90
2018-05-26T00:07:36.987Z,99.90
2018-05-26T00:10:04.847Z,99.90
2018-05-26T00:12:32.551Z,99.90
2018-05-26T00:15:00.583Z,99.90
2018-05-26T00:17:28.362Z,99.90
2018-05-26T00:19:56.294Z,99.90
2018-05-26T00:22:24.552Z,99.90
2018-05-26T00:24:53.776Z,99.90
2018-05-26T00:27:21.486Z,99.90
2018-05-26T00:29:49.646Z,99.90
2018-05-26T00:32:17.444Z,99.90
2018-05-26T00:34:46.073Z,99.90
2018-05-26T00:37:13.908Z,99.90
2018-05-26T00:39:41.828Z,99.90
2018-05-26T00:42:09.516Z,99.90
2018-05-26T00:44:37.663Z,99.90
2018-05-26T00:47:05.634Z,99.90
2018-05-26T00:49:33.374Z,99.90
2018-05-26T00:52:01.461Z,99.90
2018-05-26T00:54:29.335Z,99.90
2018-05-26T00:56:57.415Z,99.90
2018-05-26T00:59:25.096Z,99.90
2018-05-26T01:01:57.279Z,99.90
2018-05-26T01:04:24.891Z,99.90
2018-05-26T01:06:52.472Z,99.90
2018-05-26T01:09:20.084Z,99.90
2018-05-26T01:11:47.703Z,99.90
2018-05-26T01:14:16.128Z,99.90
2018-05-26T01:16:43.749Z,99.90
2018-05-26T01:19:11.425Z,99.90
2018-05-26T01:21:39.006Z,99.90
2018-05-26T01:24:06.604Z,99.90
2018-05-26T01:26:34.217Z,99.90
2018-05-26T01:29:01.788Z,99.90
2018-05-26T01:31:29.379Z,99.90
2018-05-26T01:33:56.996Z,99.90
2018-05-26T01:36:24.567Z,99.90
2018-05-26T01:38:52.172Z,99.90
2018-05-26T01:41:19.810Z,99.90
2018-05-26T01:43:48.192Z,99.90
2018-05-26T01:46:15.785Z,99.90
2018-05-26T01:48:43.424Z,99.90
2018-05-26T01:51:11.051Z,99.90
2018-05-26T01:53:39.416Z,99.90
2018-05-26T01:56:07.021Z,99.90
2018-05-26T01:58:34.605Z,99.90
2018-05-26T02:01:02.254Z,99.90
2018-05-26T02:03:29.843Z,99.90
2018-05-26T02:05:57.942Z,99.90
2018-05-26T02:08:26.300Z,99.90
2018-05-26T02:10:53.917Z,99.90
2018-05-26T02:13:21.551Z,99.90
2018-05-26T02:15:49.148Z,99.90
2018-05-26T02:18:16.727Z,99.90
2018-05-26T02:20:44.347Z,99.90
2018-05-26T02:23:12.709Z,99.90
2018-05-26T02:25:40.272Z,99.90
2018-05-26T02:28:07.845Z,99.90
2018-05-26T02:30:35.438Z,99.90
2018-05-26T02:33:03.027Z,99.90
2018-05-26T02:35:30.629Z,99.90
2018-05-26T02:37:58.188Z,99.90
2018-05-26T02:40:25.805Z,99.90
2018-05-26T02:42:54.224Z,99.90
2018-05-26T02:45:21.859Z,99.90
2018-05-26T02:47:49.463Z,99.90
2018-05-26T02:50:17.029Z,99.90
2018-05-26T02:52:44.654Z,99.90
2018-05-26T02:55:12.231Z,99.90
2018-05-26T02:57:39.822Z,99.90
2018-05-26T03:00:07.447Z,99.90
2018-05-26T03:02:35.010Z,99.90
2018-05-26T03:05:08.413Z,99.90
2018-05-26T03:07:41.639Z,99.90
2018-05-26T03:10:15.705Z,99.90
2018-05-26T03:12:48.915Z,99.90
2018-05-26T03:15:16.017Z,99.90
2018-05-26T03:17:49.306Z,99.90
2018-05-26T03:20:16.863Z,99.90
2018-05-26T03:22:44.464Z,99.90
2018-05-26T03:25:12.085Z,99.90
2018-05-26T03:27:39.683Z,99.90
2018-05-26T03:30:07.344Z,99.90
2018-05-26T03:32:34.906Z,99.90
2018-05-26T03:35:02.544Z,99.90
2018-05-26T03:37:30.098Z,99.90
2018-05-26T03:39:57.652Z,99.90
2018-05-26T03:42:25.242Z,99.90
2018-05-26T03:44:52.905Z,99.90
2018-05-26T03:47:20.456Z,99.90
2018-05-26T03:49:48.077Z,99.90
2018-05-26T03:52:15.688Z,99.90
2018-05-26T03:55:09.927Z,99.90
2018-05-26T03:57:49.441Z,99.90
2018-05-26T04:00:17.060Z,99.90
2018-05-26T04:02:44.611Z,99.90
2018-05-26T04:05:12.217Z,99.90
2018-05-26T04:07:39.783Z,99.90
2018-05-26T04:10:07.454Z,99.90
2018-05-26T04:12:35.458Z,99.90
2018-05-26T04:15:03.082Z,99.90
2018-05-26T04:17:30.700Z,99.90
2018-05-26T04:19:58.262Z,99.90
2018-05-26T04:22:26.652Z,99.90
2018-05-26T04:24:55.021Z,99.90
2018-05-26T04:27:23.417Z,99.90
2018-05-26T04:29:50.997Z,99.90
2018-05-26T04:32:18.593Z,99.90
2018-05-26T04:34:46.162Z,99.90
2018-05-26T04:37:13.780Z,99.90
2018-05-26T04:39:42.184Z,99.90
2018-05-26T04:42:09.792Z,99.90
2018-05-26T04:44:37.383Z,99.90
2018-05-26T04:47:05.008Z,99.90
2018-05-26T04:49:32.587Z,99.90
2018-05-26T04:52:00.167Z,99.90
2018-05-26T04:54:27.794Z,99.90
2018-05-26T04:56:55.403Z,99.90
2018-05-26T04:59:23.023Z,99.90
2018-05-26T05:01:50.629Z,99.90
2018-05-26T05:04:18.989Z,99.90
2018-05-26T05:06:46.620Z,99.90
2018-05-26T05:09:14.209Z,99.90
2018-05-26T05:11:41.780Z,99.90
2018-05-26T05:14:09.340Z,99.90
2018-05-26T05:16:36.898Z,99.90
2018-05-26T05:19:04.511Z,99.90
2018-05-26T05:21:32.127Z,99.90
2018-05-26T05:24:00.541Z,99.90
2018-05-26T05:26:28.121Z,99.90
2018-05-26T05:28:55.699Z,99.90
2018-05-26T05:31:23.314Z,99.90
2018-05-26T05:33:51.697Z,99.90
2018-05-26T05:36:19.270Z,99.90
2018-05-26T05:38:46.856Z,99.90
2018-05-26T05:41:14.471Z,99.90
2018-05-26T05:43:42.088Z,99.90
2018-05-26T05:46:09.701Z,99.90
2018-05-26T05:48:37.280Z,99.90
2018-05-26T05:51:05.843Z,99.90
2018-05-26T05:53:33.488Z,99.90
2018-05-26T05:56:01.159Z,99.90
2018-05-26T05:58:28.788Z,99.90
2018-05-26T06:00:57.177Z,99.90
2018-05-26T06:03:24.832Z,99.90
2018-05-26T06:05:52.448Z,99.90
2018-05-26T06:08:20.108Z,99.90
2018-05-26T06:10:47.731Z,99.90
2018-05-26T06:13:15.324Z,99.90
2018-05-26T06:15:42.915Z,99.90
2018-05-26T06:18:11.653Z,99.90
2018-05-26T06:20:39.291Z,99.90
2018-05-26T06:23:06.931Z,99.90
2018-05-26T06:25:35.326Z,99.90
2018-05-26T06:28:02.947Z,99.90
2018-05-26T06:30:30.537Z,99.90
2018-05-26T06:32:58.191Z,99.90
2018-05-26T06:35:25.850Z,99.90
2018-05-26T06:37:54.855Z,99.90
2018-05-26T06:40:22.474Z,99.90
2018-05-26T06:42:50.088Z,99.90
2018-05-26T06:45:17.688Z,99.90
2018-05-26T06:47:45.279Z,99.90
2018-05-26T06:50:12.929Z,99.90
2018-05-26T06:52:40.511Z,99.90
2018-05-26T06:55:08.134Z,99.90
2018-05-26T06:57:36.542Z,99.90
2018-05-26T07:00:04.149Z,99.90
2018-05-26T07:02:31.743Z,99.90
2018-05-26T07:05:00.136Z,99.90
2018-05-26T07:07:27.800Z,99.90
2018-05-26T07:09:55.433Z,99.90
2018-05-26T07:12:23.768Z,99.90
2018-05-26T07:14:51.420Z,99.90
2018-05-26T07:17:19.936Z,99.90
2018-05-26T07:19:47.579Z,99.90
2018-05-26T07:22:15.203Z,99.90
2018-05-26T07:24:42.859Z,99.90
2018-05-26T07:27:11.219Z,99.90
2018-05-26T07:29:38.856Z,99.90
2018-05-26T07:32:06.480Z,99.90
2018-05-26T07:34:34.118Z,99.90
2018-05-26T07:37:02.480Z,99.90
2018-05-26T07:39:30.526Z,99.90
2018-05-26T07:41:58.183Z,99.90
2018-05-26T07:44:25.779Z,99.90
2018-05-26T07:46:53.408Z,99.90
2018-05-26T07:49:21.796Z,99.90
2018-05-26T07:51:50.155Z,99.90
2018-05-26T07:54:18.559Z,99.90
2018-05-26T07:56:46.296Z,99.90
2018-05-26T07:59:13.886Z,99.90
2018-05-26T08:01:41.484Z,99.90
2018-05-26T08:04:09.100Z,99.90
2018-05-26T08:06:36.688Z,99.90
2018-05-26T08:09:04.311Z,99.90
2018-05-26T08:11:31.935Z,99.90
2018-05-26T08:13:59.526Z,99.90
2018-05-26T08:16:27.893Z,99.90
2018-05-26T08:18:56.306Z,99.90
2018-05-26T08:21:23.940Z,99.90
2018-05-26T08:23:52.316Z,99.90
2018-05-26T08:26:19.959Z,99.90
2018-05-26T08:28:47.591Z,99.90
2018-05-26T08:31:15.227Z,99.90
2018-05-26T08:33:42.860Z,99.90
2018-05-26T08:36:10.452Z,99.90
2018-05-26T08:38:38.014Z,99.90
2018-05-26T08:41:05.629Z,99.90
2018-05-26T08:43:33.996Z,99.90
2018-05-26T08:46:01.620Z,99.90
2018-05-26T08:48:30.179Z,99.90
2018-05-26T08:50:57.770Z,99.90
2018-05-26T08:53:25.348Z,99.90
2018-05-26T08:55:52.927Z,99.90
2018-05-26T08:58:21.331Z,99.90
2018-05-26T09:00:48.959Z,99.90
2018-05-26T09:03:17.341Z,99.90
2018-05-26T09:05:45.721Z,99.90
2018-05-26T09:08:14.058Z,99.90
2018-05-26T09:10:41.737Z,99.90
2018-05-26T09:13:09.367Z,99.90
2018-05-26T09:15:37.021Z,99.90
2018-05-26T09:18:04.761Z,99.90
2018-05-26T09:20:32.347Z,99.90
2018-05-26T09:22:59.909Z,99.90
2018-05-26T09:25:27.559Z,99.90
2018-05-26T09:27:55.220Z,99.90
2018-05-26T09:30:22.849Z,99.90
2018-05-26T09:32:50.498Z,99.90
2018-05-26T09:35:18.859Z,99.90
2018-05-26T09:37:46.461Z,99.90
2018-05-26T09:40:14.101Z,99.90
2018-05-26T09:42:41.675Z,99.90
2018-05-26T09:45:09.361Z,99.90
2018-05-26T09:47:37.040Z,99.90
2018-05-26T09:50:04.707Z,99.90
2018-05-26T09:52:32.339Z,99.90
2018-05-26T09:54:59.952Z,99.90
2018-05-26T09:57:28.310Z,99.90
2018-05-26T09:59:55.913Z,99.90
2018-05-26T10:02:23.515Z,99.90
2018-05-26T10:04:51.993Z,99.90
2018-05-26T10:07:19.646Z,99.90
2018-05-26T10:09:47.323Z,99.40
2018-05-26T10:12:14.895Z,98.70
2018-05-26T10:14:43.300Z,97.70
2018-05-26T10:17:10.885Z,97.70
2018-05-26T10:19:38.477Z,95.90
2018-05-26T10:22:06.118Z,95.10
2018-05-26T10:24:33.687Z,93.60
2018-05-26T10:27:01.361Z,94.50
2018-05-26T10:29:28.968Z,93.40
2018-05-26T10:31:56.580Z,93.50
2018-05-26T10:34:24.137Z,89.40
2018-05-26T10:36:51.750Z,86.00
2018-05-26T10:39:19.400Z,83.50
2018-05-26T10:41:48.769Z,76.10
2018-05-26T10:44:17.136Z,76.50
2018-05-26T10:46:45.493Z,69.00
2018-05-26T10:49:13.106Z,69.00
2018-05-26T10:51:40.745Z,70.50
2018-05-26T10:54:09.114Z,61.00
2018-05-26T10:56:36.701Z,60.90
2018-05-26T10:59:04.351Z,59.00
2018-05-26T11:01:31.965Z,59.60
2018-05-26T11:03:59.653Z,57.70
2018-05-26T11:06:30.429Z,55.80
2018-05-26T11:08:58.059Z,55.80
2018-05-26T11:11:26.451Z,55.10
2018-05-26T11:13:54.042Z,55.10
2018-05-26T11:16:21.749Z,52.80
2018-05-26T11:18:49.288Z,52.00
2018-05-26T11:21:16.909Z,51.60
2018-05-26T11:23:44.586Z,50.90
2018-05-26T11:26:12.286Z,49.80
2018-05-26T11:28:40.546Z,49.60
2018-05-26T11:31:08.200Z,49.60
2018-05-26T11:33:35.793Z,50.70
2018-05-26T11:36:03.386Z,49.50
2018-05-26T11:38:30.986Z,49.50
2018-05-26T11:40:58.595Z,50.50
2018-05-26T11:43:26.253Z,50.10
2018-05-26T11:45:53.849Z,49.30
2018-05-26T11:48:21.421Z,47.70
2018-05-26T11:50:49.027Z,47.40
2018-05-26T11:53:16.690Z,47.60
2018-05-26T11:55:45.335Z,47.50
2018-05-26T11:58:13.725Z,47.50
2018-05-26T12:00:42.121Z,47.10
2018-05-26T12:03:09.696Z,47.10
2018-05-26T12:05:37.289Z,46.30
2018-05-26T12:08:04.909Z,46.00
2018-05-26T12:10:32.479Z,45.50
2018-05-26T12:13:00.064Z,43.70
2018-05-26T12:15:27.733Z,44.60
2018-05-26T12:17:55.308Z,45.00
2018-05-26T12:20:23.720Z,45.80
2018-05-26T12:22:51.358Z,45.80
2018-05-26T12:25:19.775Z,44.00
2018-05-26T12:27:47.367Z,43.90
2018-05-26T12:30:15.279Z,43.80
2018-05-26T12:32:42.915Z,43.30
2018-05-26T12:35:11.345Z,43.60
2018-05-26T12:37:38.960Z,43.60
2018-05-26T12:40:06.561Z,42.30
2018-05-26T12:42:34.214Z,41.30
2018-05-26T12:45:01.829Z,39.20
2018-05-26T12:47:30.254Z,38.70
2018-05-26T12:49:57.880Z,38.60
2018-05-26T12:52:25.458Z,39.10
2018-05-26T12:54:53.037Z,38.40
2018-05-26T12:57:20.657Z,37.30
2018-05-26T12:59:48.285Z,38.10
2018-05-26T13:02:15.909Z,39.40
2018-05-26T13:04:43.860Z,37.70
2018-05-26T13:07:11.489Z,38.00
2018-05-26T13:09:39.821Z,37.10
2018-05-26T13:12:07.405Z,37.10
2018-05-26T13:14:34.978Z,36.60
2018-05-26T13:17:03.407Z,35.60
2018-05-26T13:19:31.005Z,35.50
2018-05-26T13:21:58.649Z,35.20
2018-05-26T13:24:26.212Z,35.00
2018-05-26T13:26:53.788Z,36.10
2018-05-26T13:29:22.202Z,38.20
2018-05-26T13:31:49.836Z,38.20
2018-05-26T13:34:18.230Z,35.70
2018-05-26T13:36:45.869Z,35.70
2018-05-26T13:39:14.242Z,35.60
2018-05-26T13:41:42.624Z,34.90
2018-05-26T13:44:11.001Z,34.20
2018-05-26T13:46:39.350Z,32.60
2018-05-26T13:49:06.997Z,32.60
2018-05-26T13:51:34.579Z,33.00
2018-05-26T13:54:02.198Z,31.50
2018-05-26T13:56:29.815Z,31.80
2018-05-26T13:58:58.223Z,31.70
2018-05-26T14:01:25.840Z,31.70
2018-05-26T14:03:53.476Z,31.40
2018-05-26T14:06:21.049Z,30.30
2018-05-26T14:08:48.672Z,31.10
2018-05-26T14:11:16.281Z,30.90
2018-05-26T14:13:43.892Z,31.00
2018-05-26T14:16:11.454Z,30.40
2018-05-26T14:18:39.070Z,30.30
2018-05-26T14:21:06.647Z,30.90
2018-05-26T14:23:34.258Z,30.30
2018-05-26T14:26:01.909Z,30.40
2018-05-26T14:28:29.546Z,28.50
2018-05-26T14:30:57.180Z,28.70
2018-05-26T14:33:24.777Z,30.50
2018-05-26T14:35:52.462Z,30.00
2018-05-26T14:38:20.047Z,30.00
2018-05-26T14:40:47.701Z,29.90
2018-05-26T14:43:16.078Z,29.60
2018-05-26T14:45:44.427Z,30.20
2018-05-26T14:48:11.983Z,30.20
2018-05-26T14:50:39.566Z,32.50
2018-05-26T14:53:07.255Z,33.30
2018-05-26T14:55:34.889Z,33.10
2018-05-26T14:58:03.294Z,30.40
2018-05-26T15:00:30.860Z,30.40
2018-05-26T15:02:58.436Z,29.30
2018-05-26T15:05:26.076Z,30.00
2018-05-26T15:07:53.719Z,29.70
2018-05-26T15:10:21.329Z,29.30
2018-05-26T15:12:49.830Z,29.50
2018-05-26T15:15:17.428Z,30.30
2018-05-26T15:17:45.053Z,31.10
2018-05-26T15:20:12.733Z,31.10
2018-05-26T15:22:41.120Z,35.60
2018-05-26T15:25:09.455Z,35.90
2018-05-26T15:27:37.061Z,35.80
2018-05-26T15:30:04.660Z,33.80
2018-05-26T15:32:32.281Z,32.80
2018-05-26T15:34:59.900Z,31.00
2018-05-26T15:37:27.528Z,30.30
2018-05-26T15:39:55.085Z,30.00
2018-05-26T15:42:22.742Z,30.00
2018-05-26T15:44:50.361Z,29.90
2018-05-26T15:47:17.999Z,29.50
2018-05-26T15:49:45.599Z,29.50
2018-05-26T15:52:13.219Z,29.80
2018-05-26T15:54:40.824Z,28.70
2018-05-26T15:57:08.436Z,28.80
2018-05-26T15:59:36.028Z,28.60
2018-05-26T16:02:03.640Z,29.20
2018-05-26T16:04:31.239Z,29.30
2018-05-26T16:06:58.881Z,29.30
2018-05-26T16:09:27.232Z,29.30
2018-05-26T16:11:54.930Z,29.40
2018-05-26T16:14:23.293Z,29.70
2018-05-26T16:16:50.905Z,29.70
2018-05-26T16:19:18.527Z,30.00
2018-05-26T16:21:46.895Z,29.70
2018-05-26T16:24:15.276Z,29.70
2018-05-26T16:26:43.637Z,29.90
2018-05-26T16:29:11.212Z,29.80
2018-05-26T16:31:39.624Z,29.80
2018-05-26T16:34:07.208Z,29.70
2018-05-26T16:36:34.836Z,30.00
2018-05-26T16:39:02.464Z,30.20
2018-05-26T16:41:30.837Z,29.90
2018-05-26T16:43:58.402Z,29.80
2018-05-26T16:46:25.997Z,29.90
2018-05-26T16:48:53.640Z,29.70
2018-05-26T16:51:21.273Z,29.60
2018-05-26T16:53:48.917Z,30.20
2018-05-26T16:56:16.500Z,30.10
2018-05-26T16:58:44.925Z,29.90
2018-05-26T17:01:12.480Z,29.90
2018-05-26T17:03:40.069Z,30.10
2018-05-26T17:06:07.649Z,30.60
2018-05-26T17:08:36.047Z,30.70
2018-05-26T17:11:03.612Z,30.70
2018-05-26T17:13:32.288Z,30.30
2018-05-26T17:16:00.936Z,30.50
2018-05-26T17:18:28.520Z,30.80
2018-05-26T17:20:56.896Z,31.10
2018-05-26T17:23:25.312Z,31.20
2018-05-26T17:25:52.908Z,31.10
2018-05-26T17:28:20.523Z,31.60
2018-05-26T17:30:48.136Z,31.70
2018-05-26T17:33:15.734Z,31.40
2018-05-26T17:35:43.353Z,31.20
2018-05-26T17:38:10.970Z,31.60
2018-05-26T17:40:38.573Z,32.20
2018-05-26T17:43:06.164Z,31.80
2018-05-26T17:45:33.761Z,32.20
2018-05-26T17:48:01.338Z,32.30
2018-05-26T17:50:28.958Z,32.60
2018-05-26T17:52:56.597Z,32.50
2018-05-26T17:55:24.218Z,32.60
2018-05-26T17:57:51.848Z,32.60
2018-05-26T18:00:19.434Z,32.50
2018-05-26T18:02:47.051Z,33.40
2018-05-26T18:05:14.735Z,34.00
2018-05-26T18:07:42.303Z,34.40
2018-05-26T18:10:09.908Z,35.00
2018-05-26T18:12:38.258Z,36.40
2018-05-26T18:15:05.966Z,35.90
2018-05-26T18:17:34.105Z,36.50
2018-05-26T18:20:02.516Z,38.40
2018-05-26T18:22:30.114Z,38.40
2018-05-26T18:24:57.728Z,38.80
2018-05-26T18:27:25.356Z,39.20
2018-05-26T18:29:52.953Z,40.20
2018-05-26T18:32:20.529Z,41.40
2018-05-26T18:34:48.169Z,42.20
2018-05-26T18:37:15.825Z,43.20
2018-05-26T18:39:43.692Z,43.90
2018-05-26T18:42:11.304Z,44.30
2018-05-26T18:44:38.871Z,45.10
2018-05-26T18:47:06.515Z,46.10
2018-05-26T18:49:34.113Z,47.10
2018-05-26T18:52:02.461Z,50.30
2018-05-26T18:54:30.081Z,50.40
2018-05-26T18:56:57.653Z,54.10
2018-05-26T18:59:25.262Z,61.50
2018-05-26T19:01:53.633Z,94.40
2018-05-26T19:04:21.994Z,99.60
2018-05-26T19:06:49.608Z,99.70
2018-05-26T19:09:17.237Z,99.90
2018-05-26T19:11:45.582Z,99.90
2018-05-26T19:14:13.167Z,99.90
2018-05-26T19:16:45.024Z,99.90
2018-05-26T19:19:13.387Z,99.90
2018-05-26T19:21:41.029Z,99.90
2018-05-26T19:24:08.737Z,99.90
2018-05-26T19:26:36.392Z,99.90
2018-05-26T19:29:04.806Z,99.90
2018-05-26T19:31:32.399Z,99.90
2018-05-26T19:34:00.122Z,99.90
2018-05-26T19:36:27.701Z,99.90
2018-05-26T19:38:55.297Z,99.90
2018-05-26T19:41:23.932Z,99.90
2018-05-26T19:43:51.528Z,99.90
2018-05-26T19:46:19.142Z,99.90
2018-05-26T19:48:46.789Z,99.90
2018-05-26T19:51:14.363Z,99.90
2018-05-26T19:53:41.981Z,99.90
2018-05-26T19:56:10.792Z,99.90
2018-05-26T19:58:38.406Z,99.90
2018-05-26T20:01:05.983Z,99.90
2018-05-26T20:03:34.407Z,99.90
2018-05-26T20:06:02.024Z,99.90
2018-05-26T20:08:29.654Z,99.90
2018-05-26T20:10:57.757Z,99.90
2018-05-26T20:13:26.174Z,99.90
2018-05-26T20:15:54.057Z,99.90
2018-05-26T20:18:21.714Z,99.90
2018-05-26T20:20:49.336Z,99.90
2018-05-26T20:23:17.020Z,99.90
2018-05-26T20:25:44.613Z,99.90
2018-05-26T20:28:12.245Z,99.90
2018-05-26T20:30:39.884Z,99.90
2018-05-26T20:33:07.525Z,99.90
2018-05-26T20:35:35.406Z,99.90
2018-05-26T20:38:03.256Z,99.90
2018-05-26T20:40:30.853Z,99.90
2018-05-26T20:42:58.490Z,99.90
2018-05-26T20:45:26.103Z,99.90
2018-05-26T20:47:53.757Z,99.90
2018-05-26T20:50:21.351Z,99.90
2018-05-26T20:52:49.733Z,99.90
2018-05-26T20:55:17.573Z,99.90
2018-05-26T20:57:45.950Z,99.90
2018-05-26T21:00:13.822Z,99.90
2018-05-26T21:02:42.224Z,99.90
2018-05-26T21:05:09.852Z,99.90
2018-05-26T21:07:37.516Z,99.90
2018-05-26T21:10:05.123Z,99.90
2018-05-26T21:12:32.816Z,99.90
2018-05-26T21:15:00.486Z,99.90
2018-05-26T21:17:28.438Z,99.90
2018-05-26T21:19:58.535Z,99.90
2018-05-26T21:22:26.145Z,99.90
2018-05-26T21:24:54.541Z,99.90
2018-05-26T21:27:22.203Z,99.90
2018-05-26T21:29:49.779Z,99.90
2018-05-26T21:32:17.462Z,99.90
2018-05-26T21:34:45.441Z,99.90
2018-05-26T21:37:14.406Z,99.90
2018-05-26T21:39:42.380Z,99.90
2018-05-26T21:42:10.000Z,99.90
2018-05-26T21:44:39.818Z,99.90
2018-05-26T21:47:07.490Z,99.90
2018-05-26T21:49:35.343Z,99.90
2018-05-26T21:52:03.287Z,99.90
2018-05-26T21:54:31.136Z,99.90
2018-05-26T21:56:58.805Z,99.90
2018-05-26T21:59:26.413Z,99.90
2018-05-26T22:01:54.119Z,99.90
2018-05-26T22:04:21.780Z,99.90
2018-05-26T22:06:49.448Z,99.90
2018-05-26T22:09:17.353Z,99.90
2018-05-26T22:11:44.953Z,99.90
2018-05-26T22:14:12.589Z,99.90
2018-05-26T22:16:41.288Z,99.90
2018-05-26T22:19:08.856Z,99.90
2018-05-26T22:21:36.789Z,99.90
2018-05-26T22:24:04.803Z,99.90
2018-05-26T22:26:32.342Z,99.90
2018-05-26T22:29:00.196Z,99.90
2018-05-26T22:31:28.067Z,99.90
2018-05-26T22:33:55.772Z,99.90
2018-05-26T22:36:24.102Z,99.90
2018-05-26T22:38:51.679Z,99.90
2018-05-26T22:41:19.520Z,99.90
2018-05-26T22:43:47.857Z,99.90
2018-05-26T22:46:16.291Z,99.90
2018-05-26T22:48:44.353Z,99.90
2018-05-26T22:51:12.324Z,99.90
2018-05-26T22:53:39.960Z,99.90
2018-05-26T22:56:07.808Z,99.90
2018-05-26T22:58:35.416Z,99.90
2018-05-26T23:01:03.006Z,99.90
2018-05-26T23:03:31.632Z,99.90
2018-05-26T23:05:59.228Z,99.90
2018-05-26T23:08:26.871Z,99.90
2018-05-26T23:10:54.831Z,99.90
2018-05-26T23:13:22.755Z,99.90
2018-05-26T23:15:50.414Z,99.90
2018-05-26T23:18:18.345Z,99.90
2018-05-26T23:20:46.263Z,99.90
2018-05-26T23:23:13.902Z,99.90
2018-05-26T23:25:42.241Z,99.90
2018-05-26T23:28:10.121Z,99.90
2018-05-26T23:30:37.737Z,99.90
2018-05-26T23:33:05.360Z,99.90
2018-05-26T23:35:33.978Z,99.90
2018-05-26T23:38:02.423Z,99.90
2018-05-26T23:40:30.807Z,99.90
2018-05-26T23:42:59.426Z,99.90
2018-05-26T23:45:27.384Z,99.90
2018-05-26T23:47:55.347Z,99.90
2018-05-26T23:50:22.983Z,99.90
2018-05-26T23:52:50.889Z,99.90
2018-05-26T23:55:18.520Z,99.90
2018-05-26T23:57:46.120Z,99.90
